sensor_id;sensor_type;location;lat;lon;timestamp;pressure;altitude;pressure_sealevel;temperature;humidity
67517;BME280;54359;59.124;37.910;2023-01-05T00:01:07;99031.22;;;-11.82;80.84
67517;BME280;54359;59.124;37.910;2023-01-05T00:03:34;99030.84;;;-11.87;80.08
67517;BME280;54359;59.124;37.910;2023-01-05T00:06:06;99033.00;;;-11.91;80.63
67517;BME280;54359;59.124;37.910;2023-01-05T00:08:32;99031.09;;;-11.94;80.44
67517;BME280;54359;59.124;37.910;2023-01-05T00:11:15;99028.59;;;-12.04;80.60
67517;BME280;54359;59.124;37.910;2023-01-05T00:14:01;99047.91;;;-12.10;80.08
67517;BME280;54359;59.124;37.910;2023-01-05T00:16:46;99028.44;;;-12.26;80.65
67517;BME280;54359;59.124;37.910;2023-01-05T00:19:35;99030.50;;;-12.31;79.96
67517;BME280;54359;59.124;37.910;2023-01-05T00:22:23;99033.84;;;-12.41;80.32
67517;BME280;54359;59.124;37.910;2023-01-05T00:25:11;99047.69;;;-12.43;80.33
67517;BME280;54359;59.124;37.910;2023-01-05T00:27:41;99040.47;;;-12.50;79.87
67517;BME280;54359;59.124;37.910;2023-01-05T00:30:09;99040.34;;;-12.51;80.82
67517;BME280;54359;59.124;37.910;2023-01-05T00:32:40;98991.94;;;-12.87;80.15
67517;BME280;54359;59.124;37.910;2023-01-05T00:35:06;99037.97;;;-12.60;80.50
67517;BME280;54359;59.124;37.910;2023-01-05T00:37:35;99037.56;;;-12.65;80.86
67517;BME280;54359;59.124;37.910;2023-01-05T00:40:04;99032.34;;;-12.68;80.57
67517;BME280;54359;59.124;37.910;2023-01-05T00:42:30;99023.44;;;-12.66;80.10
67517;BME280;54359;59.124;37.910;2023-01-05T00:44:57;99030.28;;;-12.63;80.84
67517;BME280;54359;59.124;37.910;2023-01-05T00:47:24;99026.28;;;-12.71;80.52
67517;BME280;54359;59.124;37.910;2023-01-05T00:49:52;99008.31;;;-12.79;80.14
67517;BME280;54359;59.124;37.910;2023-01-05T00:52:17;99030.72;;;-12.78;80.24
67517;BME280;54359;59.124;37.910;2023-01-05T00:54:44;99027.97;;;-12.81;80.36
67517;BME280;54359;59.124;37.910;2023-01-05T00:57:11;99030.13;;;-12.94;79.78
67517;BME280;54359;59.124;37.910;2023-01-05T00:59:38;99036.66;;;-12.94;79.60
67517;BME280;54359;59.124;37.910;2023-01-05T01:02:05;99028.13;;;-12.98;80.34
67517;BME280;54359;59.124;37.910;2023-01-05T01:04:33;99026.00;;;-13.04;80.43
67517;BME280;54359;59.124;37.910;2023-01-05T01:07:01;99034.28;;;-13.03;80.73
67517;BME280;54359;59.124;37.910;2023-01-05T01:09:28;99025.47;;;-13.10;80.92
67517;BME280;54359;59.124;37.910;2023-01-05T01:11:54;99028.78;;;-13.09;80.53
67517;BME280;54359;59.124;37.910;2023-01-05T01:14:20;99025.31;;;-13.11;81.11
67517;BME280;54359;59.124;37.910;2023-01-05T01:16:48;99028.53;;;-13.12;81.31
67517;BME280;54359;59.124;37.910;2023-01-05T01:19:18;99003.63;;;-13.24;81.25
67517;BME280;54359;59.124;37.910;2023-01-05T01:21:45;99010.16;;;-13.25;81.42
67517;BME280;54359;59.124;37.910;2023-01-05T01:24:18;99016.38;;;-13.20;81.04
67517;BME280;54359;59.124;37.910;2023-01-05T01:26:44;99027.25;;;-13.18;80.27
67517;BME280;54359;59.124;37.910;2023-01-05T01:29:10;99022.53;;;-13.25;80.47
67517;BME280;54359;59.124;37.910;2023-01-05T01:31:36;99035.59;;;-13.26;80.28
67517;BME280;54359;59.124;37.910;2023-01-05T01:34:03;99034.50;;;-13.29;80.50
67517;BME280;54359;59.124;37.910;2023-01-05T01:36:30;99029.16;;;-13.34;79.88
67517;BME280;54359;59.124;37.910;2023-01-05T01:38:56;99027.75;;;-13.41;80.35
67517;BME280;54359;59.124;37.910;2023-01-05T01:41:25;99033.22;;;-13.53;79.82
67517;BME280;54359;59.124;37.910;2023-01-05T01:43:53;99033.41;;;-13.61;80.14
67517;BME280;54359;59.124;37.910;2023-01-05T01:46:24;99037.66;;;-13.68;80.10
67517;BME280;54359;59.124;37.910;2023-01-05T01:49:02;99039.47;;;-13.76;80.37
67517;BME280;54359;59.124;37.910;2023-01-05T01:51:42;99037.91;;;-13.84;79.41
67517;BME280;54359;59.124;37.910;2023-01-05T01:54:13;99049.69;;;-13.90;79.75
67517;BME280;54359;59.124;37.910;2023-01-05T01:56:51;99045.78;;;-13.97;79.96
67517;BME280;54359;59.124;37.910;2023-01-05T01:59:26;99042.03;;;-14.02;80.94
67517;BME280;54359;59.124;37.910;2023-01-05T02:01:55;99039.03;;;-14.08;80.16
67517;BME280;54359;59.124;37.910;2023-01-05T02:04:23;99025.56;;;-14.21;79.46
67517;BME280;54359;59.124;37.910;2023-01-05T02:06:50;99045.31;;;-14.21;80.34
67517;BME280;54359;59.124;37.910;2023-01-05T02:09:19;99046.63;;;-14.24;79.91
67517;BME280;54359;59.124;37.910;2023-01-05T02:12:17;99047.06;;;-14.28;80.92
67517;BME280;54359;59.124;37.910;2023-01-05T02:15:05;99052.44;;;-14.32;81.33
67517;BME280;54359;59.124;37.910;2023-01-05T02:17:44;99050.16;;;-14.40;79.80
67517;BME280;54359;59.124;37.910;2023-01-05T02:36:12;99055.63;;;-14.70;79.72
67517;BME280;54359;59.124;37.910;2023-01-05T02:39:14;99065.47;;;-14.70;80.93
67517;BME280;54359;59.124;37.910;2023-01-05T02:42:02;99067.53;;;-14.74;81.22
67517;BME280;54359;59.124;37.910;2023-01-05T02:44:32;99056.38;;;-14.88;80.99
67517;BME280;54359;59.124;37.910;2023-01-05T02:47:03;99065.47;;;-14.87;80.06
67517;BME280;54359;59.124;37.910;2023-01-05T02:49:36;99068.69;;;-14.88;79.61
67517;BME280;54359;59.124;37.910;2023-01-05T02:52:07;99067.25;;;-14.95;80.96
67517;BME280;54359;59.124;37.910;2023-01-05T02:54:40;99066.22;;;-14.97;79.95
67517;BME280;54359;59.124;37.910;2023-01-05T02:57:22;99060.72;;;-15.03;81.07
67517;BME280;54359;59.124;37.910;2023-01-05T03:00:13;99071.31;;;-15.13;80.42
67517;BME280;54359;59.124;37.910;2023-01-05T03:02:44;99072.75;;;-15.24;80.64
67517;BME280;54359;59.124;37.910;2023-01-05T03:05:25;99069.38;;;-15.33;80.25
67517;BME280;54359;59.124;37.910;2023-01-05T03:07:55;99067.78;;;-15.41;80.17
67517;BME280;54359;59.124;37.910;2023-01-05T03:10:40;99067.63;;;-15.51;80.83
67517;BME280;54359;59.124;37.910;2023-01-05T03:13:28;99051.81;;;-15.62;80.54
67517;BME280;54359;59.124;37.910;2023-01-05T03:16:17;99069.75;;;-15.63;80.48
67517;BME280;54359;59.124;37.910;2023-01-05T03:18:49;99061.38;;;-15.74;80.45
67517;BME280;54359;59.124;37.910;2023-01-05T03:21:35;99056.00;;;-15.87;80.22
67517;BME280;54359;59.124;37.910;2023-01-05T03:24:22;99050.00;;;-15.98;80.27
67517;BME280;54359;59.124;37.910;2023-01-05T03:27:10;99076.94;;;-15.99;80.36
67517;BME280;54359;59.124;37.910;2023-01-05T03:29:57;99068.63;;;-16.09;80.07
67517;BME280;54359;59.124;37.910;2023-01-05T03:32:48;99081.09;;;-16.07;80.40
67517;BME280;54359;59.124;37.910;2023-01-05T03:35:40;99072.25;;;-16.14;80.07
67517;BME280;54359;59.124;37.910;2023-01-05T03:38:37;99085.81;;;-16.17;79.97
67517;BME280;54359;59.124;37.910;2023-01-05T03:41:07;99082.84;;;-16.31;80.11
67517;BME280;54359;59.124;37.910;2023-01-05T03:43:39;99084.16;;;-16.34;80.37
67517;BME280;54359;59.124;37.910;2023-01-05T03:46:17;99082.97;;;-16.38;80.30
67517;BME280;54359;59.124;37.910;2023-01-05T03:48:46;99094.94;;;-16.41;80.30
67517;BME280;54359;59.124;37.910;2023-01-05T03:51:16;99094.50;;;-16.46;80.18
67517;BME280;54359;59.124;37.910;2023-01-05T03:53:43;99079.69;;;-16.54;79.80
67517;BME280;54359;59.124;37.910;2023-01-05T03:56:09;99084.16;;;-16.59;79.94
67517;BME280;54359;59.124;37.910;2023-01-05T03:58:37;99086.69;;;-16.66;80.33
67517;BME280;54359;59.124;37.910;2023-01-05T04:01:04;99087.09;;;-16.70;79.77
67517;BME280;54359;59.124;37.910;2023-01-05T04:03:31;99090.81;;;-16.74;80.40
67517;BME280;54359;59.124;37.910;2023-01-05T04:05:58;99088.06;;;-16.77;80.13
67517;BME280;54359;59.124;37.910;2023-01-05T04:08:27;99099.34;;;-16.79;80.20
67517;BME280;54359;59.124;37.910;2023-01-05T04:10:53;99097.31;;;-16.83;80.20
67517;BME280;54359;59.124;37.910;2023-01-05T04:13:20;99098.81;;;-16.92;80.16
67517;BME280;54359;59.124;37.910;2023-01-05T04:15:46;99097.66;;;-16.96;79.97
67517;BME280;54359;59.124;37.910;2023-01-05T04:18:12;99104.69;;;-16.99;79.74
67517;BME280;54359;59.124;37.910;2023-01-05T04:20:38;99092.75;;;-17.12;80.17
67517;BME280;54359;59.124;37.910;2023-01-05T04:23:06;99095.84;;;-17.06;80.30
67517;BME280;54359;59.124;37.910;2023-01-05T04:25:34;99082.59;;;-17.15;80.00
67517;BME280;54359;59.124;37.910;2023-01-05T04:28:11;99092.69;;;-17.20;80.27
67517;BME280;54359;59.124;37.910;2023-01-05T04:30:37;99102.34;;;-17.22;80.17
67517;BME280;54359;59.124;37.910;2023-01-05T04:33:04;99103.19;;;-17.21;80.20
67517;BME280;54359;59.124;37.910;2023-01-05T04:35:33;99105.41;;;-17.32;80.13
67517;BME280;54359;59.124;37.910;2023-01-05T04:38:00;99111.13;;;-17.40;79.28
67517;BME280;54359;59.124;37.910;2023-01-05T04:40:28;99098.97;;;-17.54;79.90
67517;BME280;54359;59.124;37.910;2023-01-05T04:42:55;99091.59;;;-17.70;79.83
67517;BME280;54359;59.124;37.910;2023-01-05T04:45:22;99104.88;;;-17.68;80.08
67517;BME280;54359;59.124;37.910;2023-01-05T04:47:50;99116.31;;;-17.69;80.64
67517;BME280;54359;59.124;37.910;2023-01-05T04:50:19;99107.25;;;-17.77;79.83
67517;BME280;54359;59.124;37.910;2023-01-05T04:52:47;99115.66;;;-17.75;79.77
67517;BME280;54359;59.124;37.910;2023-01-05T04:55:12;99114.31;;;-17.80;80.41
67517;BME280;54359;59.124;37.910;2023-01-05T04:57:39;99107.03;;;-17.87;79.64
67517;BME280;54359;59.124;37.910;2023-01-05T05:00:08;99101.69;;;-17.99;79.36
67517;BME280;54359;59.124;37.910;2023-01-05T05:02:58;99110.19;;;-18.11;79.60
67517;BME280;54359;59.124;37.910;2023-01-05T05:05:25;99115.00;;;-18.20;79.85
67517;BME280;54359;59.124;37.910;2023-01-05T05:07:53;99121.00;;;-18.25;79.58
67517;BME280;54359;59.124;37.910;2023-01-05T05:10:23;99124.34;;;-18.32;79.93
67517;BME280;54359;59.124;37.910;2023-01-05T05:12:50;99118.63;;;-18.39;80.42
67517;BME280;54359;59.124;37.910;2023-01-05T05:15:17;99119.53;;;-18.46;79.62
67517;BME280;54359;59.124;37.910;2023-01-05T05:17:45;99122.53;;;-18.49;79.92
67517;BME280;54359;59.124;37.910;2023-01-05T05:20:13;99128.66;;;-18.52;79.46
67517;BME280;54359;59.124;37.910;2023-01-05T05:22:41;99139.41;;;-18.59;80.08
67517;BME280;54359;59.124;37.910;2023-01-05T05:25:08;99134.00;;;-18.63;80.19
67517;BME280;54359;59.124;37.910;2023-01-05T05:27:39;99128.75;;;-18.67;79.56
67517;BME280;54359;59.124;37.910;2023-01-05T05:30:07;99136.81;;;-18.68;79.38
67517;BME280;54359;59.124;37.910;2023-01-05T05:32:33;99132.97;;;-18.73;79.90
67517;BME280;54359;59.124;37.910;2023-01-05T05:34:59;99135.69;;;-18.78;79.66
67517;BME280;54359;59.124;37.910;2023-01-05T05:37:25;99125.91;;;-18.86;80.19
67517;BME280;54359;59.124;37.910;2023-01-05T05:39:52;99139.91;;;-18.84;79.56
67517;BME280;54359;59.124;37.910;2023-01-05T05:42:18;99128.22;;;-18.94;79.81
67517;BME280;54359;59.124;37.910;2023-01-05T05:44:44;99136.59;;;-18.92;80.31
67517;BME280;54359;59.124;37.910;2023-01-05T05:47:11;99148.31;;;-18.90;79.75
67517;BME280;54359;59.124;37.910;2023-01-05T05:49:39;99147.28;;;-18.92;79.67
67517;BME280;54359;59.124;37.910;2023-01-05T05:52:08;99144.16;;;-18.98;79.79
67517;BME280;54359;59.124;37.910;2023-01-05T05:54:34;99134.91;;;-19.08;79.98
67517;BME280;54359;59.124;37.910;2023-01-05T05:57:00;99122.53;;;-19.16;80.25
67517;BME280;54359;59.124;37.910;2023-01-05T05:59:26;99147.38;;;-19.13;79.57
67517;BME280;54359;59.124;37.910;2023-01-05T06:01:59;99153.31;;;-19.11;79.68
67517;BME280;54359;59.124;37.910;2023-01-05T06:04:25;99159.25;;;-19.16;79.91
67517;BME280;54359;59.124;37.910;2023-01-05T06:06:50;99154.19;;;-19.25;79.51
67517;BME280;54359;59.124;37.910;2023-01-05T06:09:19;99162.22;;;-19.26;80.18
67517;BME280;54359;59.124;37.910;2023-01-05T06:11:45;99174.66;;;-19.24;79.46
67517;BME280;54359;59.124;37.910;2023-01-05T06:14:11;99173.63;;;-19.34;79.94
67517;BME280;54359;59.124;37.910;2023-01-05T06:16:37;99177.50;;;-19.36;79.89
67517;BME280;54359;59.124;37.910;2023-01-05T06:19:05;99184.09;;;-19.35;79.86
67517;BME280;54359;59.124;37.910;2023-01-05T06:21:33;99179.22;;;-19.35;80.06
67517;BME280;54359;59.124;37.910;2023-01-05T06:24:00;99166.66;;;-19.38;79.94
67517;BME280;54359;59.124;37.910;2023-01-05T06:26:27;99180.25;;;-19.33;80.01
67517;BME280;54359;59.124;37.910;2023-01-05T06:28:54;99178.53;;;-19.34;80.13
67517;BME280;54359;59.124;37.910;2023-01-05T06:31:20;99181.69;;;-19.42;79.59
67517;BME280;54359;59.124;37.910;2023-01-05T06:33:46;99190.44;;;-19.44;80.22
67517;BME280;54359;59.124;37.910;2023-01-05T06:36:11;99195.31;;;-19.44;79.97
67517;BME280;54359;59.124;37.910;2023-01-05T06:38:37;99198.13;;;-19.48;80.04
67517;BME280;54359;59.124;37.910;2023-01-05T06:41:06;99184.84;;;-19.50;79.93
67517;BME280;54359;59.124;37.910;2023-01-05T06:43:32;99192.69;;;-19.45;79.63
67517;BME280;54359;59.124;37.910;2023-01-05T06:45:59;99195.66;;;-19.41;80.11
67517;BME280;54359;59.124;37.910;2023-01-05T06:48:24;99196.69;;;-19.39;80.01
67517;BME280;54359;59.124;37.910;2023-01-05T06:50:50;99198.81;;;-19.42;79.96
67517;BME280;54359;59.124;37.910;2023-01-05T06:53:16;99182.75;;;-19.54;79.98
67517;BME280;54359;59.124;37.910;2023-01-05T06:55:43;99188.34;;;-19.48;79.72
67517;BME280;54359;59.124;37.910;2023-01-05T06:58:09;99200.22;;;-19.51;79.72
67517;BME280;54359;59.124;37.910;2023-01-05T07:00:35;99170.19;;;-19.64;79.45
67517;BME280;54359;59.124;37.910;2023-01-05T07:03:01;99196.03;;;-19.59;79.67
67517;BME280;54359;59.124;37.910;2023-01-05T07:05:27;99193.59;;;-19.67;79.96
67517;BME280;54359;59.124;37.910;2023-01-05T07:07:53;99202.31;;;-19.69;79.73
67517;BME280;54359;59.124;37.910;2023-01-05T07:10:20;99203.53;;;-19.65;79.78
67517;BME280;54359;59.124;37.910;2023-01-05T07:12:47;99204.63;;;-19.70;79.70
67517;BME280;54359;59.124;37.910;2023-01-05T07:15:15;99191.69;;;-19.76;79.75
67517;BME280;54359;59.124;37.910;2023-01-05T07:17:41;99215.25;;;-19.70;79.73
67517;BME280;54359;59.124;37.910;2023-01-05T07:20:07;99213.53;;;-19.71;79.94
67517;BME280;54359;59.124;37.910;2023-01-05T07:22:33;99201.81;;;-19.80;80.26
67517;BME280;54359;59.124;37.910;2023-01-05T07:25:00;99213.34;;;-19.72;80.15
67517;BME280;54359;59.124;37.910;2023-01-05T07:27:27;99216.84;;;-19.70;80.13
67517;BME280;54359;59.124;37.910;2023-01-05T07:29:53;99206.91;;;-19.79;79.80
67517;BME280;54359;59.124;37.910;2023-01-05T07:32:21;99218.56;;;-19.69;80.06
67517;BME280;54359;59.124;37.910;2023-01-05T07:34:48;99215.44;;;-19.68;79.90
67517;BME280;54359;59.124;37.910;2023-01-05T07:37:15;99209.00;;;-19.75;79.98
67517;BME280;54359;59.124;37.910;2023-01-05T07:39:41;99217.53;;;-19.71;80.02
67517;BME280;54359;59.124;37.910;2023-01-05T07:42:09;99207.25;;;-19.76;80.09
67517;BME280;54359;59.124;37.910;2023-01-05T07:44:41;99223.44;;;-19.69;80.11
67517;BME280;54359;59.124;37.910;2023-01-05T07:47:07;99192.75;;;-19.89;80.10
67517;BME280;54359;59.124;37.910;2023-01-05T07:49:37;99214.91;;;-19.80;80.11
67517;BME280;54359;59.124;37.910;2023-01-05T07:52:06;99222.63;;;-19.77;79.75
67517;BME280;54359;59.124;37.910;2023-01-05T07:54:32;99220.69;;;-19.79;79.89
67517;BME280;54359;59.124;37.910;2023-01-05T07:57:00;99240.09;;;-19.74;79.97
67517;BME280;54359;59.124;37.910;2023-01-05T07:59:29;99235.38;;;-19.72;80.06
67517;BME280;54359;59.124;37.910;2023-01-05T08:01:55;99236.72;;;-19.67;80.01
67517;BME280;54359;59.124;37.910;2023-01-05T08:04:21;99227.47;;;-19.70;80.33
67517;BME280;54359;59.124;37.910;2023-01-05T08:06:48;99237.25;;;-19.55;80.31
67517;BME280;54359;59.124;37.910;2023-01-05T08:09:15;99231.31;;;-19.57;80.17
67517;BME280;54359;59.124;37.910;2023-01-05T08:11:59;99239.38;;;-19.44;80.24
67517;BME280;54359;59.124;37.910;2023-01-05T08:14:25;99231.84;;;-19.53;79.46
67517;BME280;54359;59.124;37.910;2023-01-05T08:16:51;99247.59;;;-19.43;80.05
67517;BME280;54359;59.124;37.910;2023-01-05T08:19:17;99243.91;;;-19.40;80.26
67517;BME280;54359;59.124;37.910;2023-01-05T08:21:45;99241.09;;;-19.43;80.33
67517;BME280;54359;59.124;37.910;2023-01-05T08:24:12;99235.00;;;-19.39;80.40
67517;BME280;54359;59.124;37.910;2023-01-05T08:26:39;99246.00;;;-19.29;80.09
67517;BME280;54359;59.124;37.910;2023-01-05T08:29:05;99246.34;;;-19.33;80.05
67517;BME280;54359;59.124;37.910;2023-01-05T08:31:32;99245.28;;;-19.35;79.99
67517;BME280;54359;59.124;37.910;2023-01-05T08:34:17;99232.38;;;-19.34;79.97
67517;BME280;54359;59.124;37.910;2023-01-05T08:36:44;99237.78;;;-19.29;80.17
67517;BME280;54359;59.124;37.910;2023-01-05T08:39:11;99210.69;;;-19.45;80.10
67517;BME280;54359;59.124;37.910;2023-01-05T08:42:04;99231.13;;;-19.30;80.50
67517;BME280;54359;59.124;37.910;2023-01-05T08:44:40;99250.00;;;-19.15;80.45
67517;BME280;54359;59.124;37.910;2023-01-05T08:47:33;99253.50;;;-19.20;80.16
67517;BME280;54359;59.124;37.910;2023-01-05T08:49:59;99258.25;;;-19.21;80.21
67517;BME280;54359;59.124;37.910;2023-01-05T08:52:32;99237.25;;;-19.27;80.15
67517;BME280;54359;59.124;37.910;2023-01-05T08:55:26;99213.69;;;-19.48;79.85
67517;BME280;54359;59.124;37.910;2023-01-05T08:58:00;99257.69;;;-19.26;79.91
67517;BME280;54359;59.124;37.910;2023-01-05T09:00:28;99214.00;;;-19.44;80.14
67517;BME280;54359;59.124;37.910;2023-01-05T09:06:13;99253.00;;;-19.17;79.45
67517;BME280;54359;59.124;37.910;2023-01-05T09:09:19;99245.63;;;-19.24;79.63
67517;BME280;54359;59.124;37.910;2023-01-05T09:12:18;99228.19;;;-19.28;79.55
67517;BME280;54359;59.124;37.910;2023-01-05T09:14:45;99208.44;;;-19.43;79.51
67517;BME280;54359;59.124;37.910;2023-01-05T09:17:11;99234.28;;;-19.31;79.92
67517;BME280;54359;59.124;37.910;2023-01-05T09:19:38;99187.28;;;-19.57;79.32
67517;BME280;54359;59.124;37.910;2023-01-05T09:22:05;99204.91;;;-19.53;79.52
67517;BME280;54359;59.124;37.910;2023-01-05T09:24:34;99211.91;;;-19.49;79.66
67517;BME280;54359;59.124;37.910;2023-01-05T09:27:08;99218.41;;;-19.42;79.69
67517;BME280;54359;59.124;37.910;2023-01-05T09:29:39;99212.59;;;-19.42;79.58
67517;BME280;54359;59.124;37.910;2023-01-05T09:32:31;99228.34;;;-19.33;79.57
67517;BME280;54359;59.124;37.910;2023-01-05T09:37:55;99208.94;;;-19.39;79.98
67517;BME280;54359;59.124;37.910;2023-01-05T09:59:52;99217.38;;;-18.40;80.66
67517;BME280;54359;59.124;37.910;2023-01-05T10:07:30;99229.56;;;-18.19;80.67
67517;BME280;54359;59.124;37.910;2023-01-05T10:13:44;99199.63;;;-18.61;79.19
67517;BME280;54359;59.124;37.910;2023-01-05T10:16:21;99199.75;;;-18.82;79.48
67517;BME280;54359;59.124;37.910;2023-01-05T10:18:50;99205.69;;;-18.80;79.43
67517;BME280;54359;59.124;37.910;2023-01-05T10:25:07;99232.06;;;-18.78;79.61
67517;BME280;54359;59.124;37.910;2023-01-05T10:28:28;99252.34;;;-18.72;79.86
67517;BME280;54359;59.124;37.910;2023-01-05T10:31:34;99256.38;;;-18.72;80.04
67517;BME280;54359;59.124;37.910;2023-01-05T10:37:44;99254.59;;;-18.66;80.08
67517;BME280;54359;59.124;37.910;2023-01-05T10:40:23;99252.66;;;-18.61;79.54
67517;BME280;54359;59.124;37.910;2023-01-05T10:45:41;99264.72;;;-18.56;80.19
67517;BME280;54359;59.124;37.910;2023-01-05T10:48:17;99270.50;;;-18.55;79.30
67517;BME280;54359;59.124;37.910;2023-01-05T10:51:18;99246.72;;;-18.71;79.47
67517;BME280;54359;59.124;37.910;2023-01-05T11:00:09;99263.56;;;-18.29;81.07
67517;BME280;54359;59.124;37.910;2023-01-05T11:03:00;99261.03;;;-17.85;80.84
67517;BME280;54359;59.124;37.910;2023-01-05T11:05:37;99233.31;;;-17.53;80.69
67517;BME280;54359;59.124;37.910;2023-01-05T11:08:21;99264.78;;;-17.03;80.11
67517;BME280;54359;59.124;37.910;2023-01-05T11:14:23;99252.66;;;-16.54;79.49
67517;BME280;54359;59.124;37.910;2023-01-05T11:16:52;99253.25;;;-16.40;79.70
67517;BME280;54359;59.124;37.910;2023-01-05T11:19:34;99259.56;;;-16.27;79.39
67517;BME280;54359;59.124;37.910;2023-01-05T11:22:07;99265.25;;;-16.19;78.89
67517;BME280;54359;59.124;37.910;2023-01-05T11:25:12;99270.19;;;-16.19;78.79
67517;BME280;54359;59.124;37.910;2023-01-05T11:27:42;99262.16;;;-16.09;78.93
67517;BME280;54359;59.124;37.910;2023-01-05T11:30:25;99271.88;;;-15.86;79.40
67517;BME280;54359;59.124;37.910;2023-01-05T11:33:27;99264.84;;;-15.74;79.01
67517;BME280;54359;59.124;37.910;2023-01-05T11:36:25;99270.66;;;-15.74;78.77
67517;BME280;54359;59.124;37.910;2023-01-05T11:42:36;99272.94;;;-15.75;79.00
67517;BME280;54359;59.124;37.910;2023-01-05T11:45:54;99265.28;;;-15.70;79.74
67517;BME280;54359;59.124;37.910;2023-01-05T11:48:34;99226.16;;;-15.75;79.16
67517;BME280;54359;59.124;37.910;2023-01-05T11:51:43;99275.56;;;-15.41;78.35
67517;BME280;54359;59.124;37.910;2023-01-05T11:54:36;99260.34;;;-15.45;78.67
67517;BME280;54359;59.124;37.910;2023-01-05T11:57:22;99269.41;;;-15.28;79.32
67517;BME280;54359;59.124;37.910;2023-01-05T12:09:37;99264.94;;;-15.82;78.52
67517;BME280;54359;59.124;37.910;2023-01-05T13:08:02;99333.75;;;-20.16;78.51
67517;BME280;54359;59.124;37.910;2023-01-05T13:13:16;99326.56;;;-20.29;78.50
67517;BME280;54359;59.124;37.910;2023-01-05T13:19:39;99362.34;;;-20.22;78.45
67517;BME280;54359;59.124;37.910;2023-01-05T13:25:28;99284.50;;;-20.75;77.97
67517;BME280;54359;59.124;37.910;2023-01-05T14:07:10;99401.63;;;-20.82;77.81
67517;BME280;54359;59.124;37.910;2023-01-05T14:10:32;99415.94;;;-20.85;78.48
67517;BME280;54359;59.124;37.910;2023-01-05T14:13:02;99411.84;;;-20.92;77.88
67517;BME280;54359;59.124;37.910;2023-01-05T14:18:06;99415.81;;;-21.00;78.25
67517;BME280;54359;59.124;37.910;2023-01-05T14:23:50;99426.56;;;-21.05;78.67
67517;BME280;54359;59.124;37.910;2023-01-05T14:26:14;99412.66;;;-21.19;77.85
67517;BME280;54359;59.124;37.910;2023-01-05T14:28:46;99404.72;;;-21.31;78.09
67517;BME280;54359;59.124;37.910;2023-01-05T14:36:30;99446.56;;;-21.27;78.00
67517;BME280;54359;59.124;37.910;2023-01-05T14:39:04;99437.50;;;-21.28;78.70
67517;BME280;54359;59.124;37.910;2023-01-05T14:41:32;99443.91;;;-21.29;78.55
67517;BME280;54359;59.124;37.910;2023-01-05T14:44:03;99392.63;;;-21.56;78.37
67517;BME280;54359;59.124;37.910;2023-01-05T14:46:52;99447.56;;;-21.33;78.49
67517;BME280;54359;59.124;37.910;2023-01-05T14:49:51;99448.63;;;-21.31;77.95
67517;BME280;54359;59.124;37.910;2023-01-05T14:52:55;99447.56;;;-21.33;78.58
67517;BME280;54359;59.124;37.910;2023-01-05T14:55:36;99445.22;;;-21.38;78.61
67517;BME280;54359;59.124;37.910;2023-01-05T14:58:12;99437.50;;;-21.48;78.22
67517;BME280;54359;59.124;37.910;2023-01-05T15:00:55;99437.38;;;-21.43;77.96
67517;BME280;54359;59.124;37.910;2023-01-05T15:10:11;99417.06;;;-21.69;78.30
67517;BME280;54359;59.124;37.910;2023-01-05T15:13:24;99451.47;;;-21.60;77.83
67517;BME280;54359;59.124;37.910;2023-01-05T15:16:21;99448.94;;;-21.67;77.80
67517;BME280;54359;59.124;37.910;2023-01-05T15:22:49;99458.72;;;-21.67;78.34
67517;BME280;54359;59.124;37.910;2023-01-05T15:31:29;99470.31;;;-21.85;77.85
67517;BME280;54359;59.124;37.910;2023-01-05T15:34:20;99469.94;;;-21.88;77.94
67517;BME280;54359;59.124;37.910;2023-01-05T15:39:42;99463.03;;;-21.98;77.54
67517;BME280;54359;59.124;37.910;2023-01-05T15:42:19;99469.94;;;-22.01;77.73
67517;BME280;54359;59.124;37.910;2023-01-05T15:45:23;99455.88;;;-22.09;78.07
67517;BME280;54359;59.124;37.910;2023-01-05T15:48:12;99417.06;;;-22.40;78.21
67517;BME280;54359;59.124;37.910;2023-01-05T15:50:51;99468.28;;;-22.07;77.91
67517;BME280;54359;59.124;37.910;2023-01-05T15:53:29;99475.22;;;-22.10;78.13
67517;BME280;54359;59.124;37.910;2023-01-05T15:55:57;99476.38;;;-22.14;78.14
67517;BME280;54359;59.124;37.910;2023-01-05T15:58:41;99485.91;;;-22.16;78.35
67517;BME280;54359;59.124;37.910;2023-01-05T16:01:16;99480.25;;;-22.22;77.88
67517;BME280;54359;59.124;37.910;2023-01-05T16:03:50;99484.25;;;-22.22;77.75
67517;BME280;54359;59.124;37.910;2023-01-05T16:06:32;99456.72;;;-22.41;78.12
67517;BME280;54359;59.124;37.910;2023-01-05T16:09:36;99484.59;;;-22.26;78.01
67517;BME280;54359;59.124;37.910;2023-01-05T16:12:07;99486.16;;;-22.27;77.78
67517;BME280;54359;59.124;37.910;2023-01-05T16:14:43;99484.97;;;-22.36;77.86
67517;BME280;54359;59.124;37.910;2023-01-05T16:17:17;99473.16;;;-22.46;77.80
67517;BME280;54359;59.124;37.910;2023-01-05T16:19:49;99497.81;;;-22.37;77.96
67517;BME280;54359;59.124;37.910;2023-01-05T16:22:24;99492.53;;;-22.40;78.18
67517;BME280;54359;59.124;37.910;2023-01-05T16:25:10;99431.59;;;-22.79;78.03
67517;BME280;54359;59.124;37.910;2023-01-05T16:27:47;99461.44;;;-22.61;77.88
67517;BME280;54359;59.124;37.910;2023-01-05T16:30:38;99502.28;;;-22.40;77.72
67517;BME280;54359;59.124;37.910;2023-01-05T16:35:51;99501.19;;;-22.55;78.06
67517;BME280;54359;59.124;37.910;2023-01-05T16:38:23;99505.28;;;-22.48;77.60
67517;BME280;54359;59.124;37.910;2023-01-05T16:40:54;99514.25;;;-22.55;77.80
67517;BME280;54359;59.124;37.910;2023-01-05T16:46:43;99497.66;;;-22.70;77.98
67517;BME280;54359;59.124;37.910;2023-01-05T16:49:35;99498.22;;;-22.78;77.82
67517;BME280;54359;59.124;37.910;2023-01-05T16:52:35;99506.38;;;-22.78;78.18
67517;BME280;54359;59.124;37.910;2023-01-05T16:55:35;99532.13;;;-22.67;77.76
67517;BME280;54359;59.124;37.910;2023-01-05T16:58:34;99511.19;;;-22.72;77.67
67517;BME280;54359;59.124;37.910;2023-01-05T17:04:11;99524.44;;;-22.70;78.02